sensor_id;sensor_type;location;lat;lon;timestamp;P1;durP1;ratioP1;P2;durP2;ratioP2
5349;SDS011;2697;42.144;24.794;2023-07-31T00:01:42;1.83;;;1.50;;
5349;SDS011;2697;42.144;24.794;2023-07-31T00:04:07;5.23;;;1.60;;
5349;SDS011;2697;42.144;24.794;2023-07-31T00:06:33;7.53;;;2.00;;
5349;SDS011;2697;42.144;24.794;2023-07-31T00:08:58;19.73;;;1.67;;
5349;SDS011;2697;42.144;24.794;2023-07-31T00:11:23;2.30;;;1.70;;
5349;SDS011;2697;42.144;24.794;2023-07-31T00:13:49;2.20;;;1.20;;
5349;SDS011;2697;42.144;24.794;2023-07-31T00:16:14;2.63;;;1.77;;
5349;SDS011;2697;42.144;24.794;2023-07-31T00:18:39;3.23;;;2.00;;
5349;SDS011;2697;42.144;24.794;2023-07-31T00:21:05;1.77;;;1.47;;
5349;SDS011;2697;42.144;24.794;2023-07-31T00:23:30;2.63;;;1.47;;
5349;SDS011;2697;42.144;24.794;2023-07-31T00:25:56;5.00;;;1.43;;
5349;SDS011;2697;42.144;24.794;2023-07-31T00:28:21;8.53;;;1.60;;
5349;SDS011;2697;42.144;24.794;2023-07-31T00:30:46;2.80;;;2.00;;
5349;SDS011;2697;42.144;24.794;2023-07-31T00:33:12;2.23;;;1.40;;
5349;SDS011;2697;42.144;24.794;2023-07-31T00:35:37;4.90;;;1.53;;
5349;SDS011;2697;42.144;24.794;2023-07-31T00:38:02;2.90;;;1.50;;
5349;SDS011;2697;42.144;24.794;2023-07-31T00:40:28;2.47;;;1.90;;
5349;SDS011;2697;42.144;24.794;2023-07-31T00:42:53;9.37;;;2.20;;
5349;SDS011;2697;42.144;24.794;2023-07-31T00:45:18;2.60;;;1.77;;
5349;SDS011;2697;42.144;24.794;2023-07-31T00:47:44;8.63;;;2.10;;
5349;SDS011;2697;42.144;24.794;2023-07-31T00:50:09;3.40;;;1.63;;
5349;SDS011;2697;42.144;24.794;2023-07-31T00:52:35;2.70;;;1.67;;
5349;SDS011;2697;42.144;24.794;2023-07-31T00:55:01;5.00;;;1.60;;
5349;SDS011;2697;42.144;24.794;2023-07-31T00:57:27;3.77;;;1.77;;
5349;SDS011;2697;42.144;24.794;2023-07-31T00:59:53;2.53;;;1.90;;
5349;SDS011;2697;42.144;24.794;2023-07-31T01:02:18;5.20;;;2.20;;
5349;SDS011;2697;42.144;24.794;2023-07-31T01:04:44;2.73;;;1.60;;
5349;SDS011;2697;42.144;24.794;2023-07-31T01:07:11;9.13;;;2.00;;
5349;SDS011;2697;42.144;24.794;2023-07-31T01:09:49;4.90;;;1.60;;
5349;SDS011;2697;42.144;24.794;2023-07-31T01:12:21;2.60;;;1.73;;
5349;SDS011;2697;42.144;24.794;2023-07-31T01:15:01;2.50;;;1.23;;
5349;SDS011;2697;42.144;24.794;2023-07-31T01:17:30;2.93;;;1.50;;
5349;SDS011;2697;42.144;24.794;2023-07-31T01:19:57;5.37;;;2.10;;
5349;SDS011;2697;42.144;24.794;2023-07-31T01:25:41;6.43;;;1.63;;
5349;SDS011;2697;42.144;24.794;2023-07-31T01:28:34;3.23;;;2.20;;
5349;SDS011;2697;42.144;24.794;2023-07-31T01:31:23;1.60;;;1.43;;
5349;SDS011;2697;42.144;24.794;2023-07-31T01:33:50;5.53;;;1.90;;
5349;SDS011;2697;42.144;24.794;2023-07-31T01:36:19;2.43;;;2.00;;
5349;SDS011;2697;42.144;24.794;2023-07-31T01:38:45;6.37;;;2.37;;
5349;SDS011;2697;42.144;24.794;2023-07-31T01:41:10;2.20;;;1.70;;
5349;SDS011;2697;42.144;24.794;2023-07-31T01:43:35;3.73;;;2.03;;
5349;SDS011;2697;42.144;24.794;2023-07-31T01:46:01;6.30;;;2.33;;
5349;SDS011;2697;42.144;24.794;2023-07-31T01:48:26;6.63;;;2.70;;
5349;SDS011;2697;42.144;24.794;2023-07-31T01:50:51;4.90;;;2.40;;
5349;SDS011;2697;42.144;24.794;2023-07-31T01:53:17;4.13;;;2.40;;
5349;SDS011;2697;42.144;24.794;2023-07-31T01:55:42;7.93;;;2.10;;
5349;SDS011;2697;42.144;24.794;2023-07-31T01:58:08;5.10;;;2.70;;
5349;SDS011;2697;42.144;24.794;2023-07-31T02:00:33;5.37;;;2.20;;
5349;SDS011;2697;42.144;24.794;2023-07-31T02:02:59;7.30;;;2.57;;
5349;SDS011;2697;42.144;24.794;2023-07-31T02:05:24;5.77;;;2.30;;
5349;SDS011;2697;42.144;24.794;2023-07-31T02:07:51;5.40;;;2.30;;
5349;SDS011;2697;42.144;24.794;2023-07-31T02:10:17;5.03;;;2.47;;
5349;SDS011;2697;42.144;24.794;2023-07-31T02:12:42;3.23;;;2.60;;
5349;SDS011;2697;42.144;24.794;2023-07-31T02:15:07;8.47;;;2.80;;
5349;SDS011;2697;42.144;24.794;2023-07-31T02:17:33;7.10;;;2.43;;
5349;SDS011;2697;42.144;24.794;2023-07-31T02:19:58;5.70;;;3.20;;
5349;SDS011;2697;42.144;24.794;2023-07-31T02:22:23;18.07;;;3.67;;
5349;SDS011;2697;42.144;24.794;2023-07-31T02:24:49;10.40;;;4.63;;
5349;SDS011;2697;42.144;24.794;2023-07-31T02:27:14;21.30;;;5.93;;
5349;SDS011;2697;42.144;24.794;2023-07-31T02:29:39;13.90;;;6.70;;
5349;SDS011;2697;42.144;24.794;2023-07-31T02:32:05;11.77;;;5.73;;
5349;SDS011;2697;42.144;24.794;2023-07-31T02:34:31;14.33;;;5.30;;
5349;SDS011;2697;42.144;24.794;2023-07-31T02:36:56;6.57;;;4.50;;
5349;SDS011;2697;42.144;24.794;2023-07-31T02:39:21;15.70;;;4.70;;
5349;SDS011;2697;42.144;24.794;2023-07-31T02:41:47;19.77;;;4.93;;
5349;SDS011;2697;42.144;24.794;2023-07-31T02:44:12;10.07;;;5.00;;
5349;SDS011;2697;42.144;24.794;2023-07-31T02:46:39;9.80;;;4.30;;
5349;SDS011;2697;42.144;24.794;2023-07-31T02:49:05;18.70;;;3.80;;
5349;SDS011;2697;42.144;24.794;2023-07-31T02:51:30;8.03;;;3.13;;
5349;SDS011;2697;42.144;24.794;2023-07-31T02:53:55;13.53;;;3.83;;
5349;SDS011;2697;42.144;24.794;2023-07-31T02:56:21;5.70;;;3.30;;
5349;SDS011;2697;42.144;24.794;2023-07-31T02:58:46;5.03;;;3.50;;
5349;SDS011;2697;42.144;24.794;2023-07-31T03:01:11;10.00;;;4.77;;
5349;SDS011;2697;42.144;24.794;2023-07-31T03:03:37;16.27;;;4.63;;
5349;SDS011;2697;42.144;24.794;2023-07-31T03:06:02;5.70;;;3.50;;
5349;SDS011;2697;42.144;24.794;2023-07-31T03:08:28;5.00;;;3.57;;
5349;SDS011;2697;42.144;24.794;2023-07-31T03:10:53;5.90;;;3.20;;
5349;SDS011;2697;42.144;24.794;2023-07-31T03:13:18;5.90;;;3.83;;
5349;SDS011;2697;42.144;24.794;2023-07-31T03:15:44;4.63;;;3.43;;
5349;SDS011;2697;42.144;24.794;2023-07-31T03:18:09;17.10;;;4.10;;
5349;SDS011;2697;42.144;24.794;2023-07-31T03:20:35;6.37;;;4.13;;
5349;SDS011;2697;42.144;24.794;2023-07-31T03:23:00;7.07;;;4.47;;
5349;SDS011;2697;42.144;24.794;2023-07-31T03:25:26;6.10;;;4.73;;
5349;SDS011;2697;42.144;24.794;2023-07-31T03:27:52;13.27;;;5.30;;
5349;SDS011;2697;42.144;24.794;2023-07-31T03:30:17;14.73;;;5.80;;
5349;SDS011;2697;42.144;24.794;2023-07-31T03:32:42;10.37;;;5.30;;
5349;SDS011;2697;42.144;24.794;2023-07-31T03:35:08;9.17;;;6.13;;
5349;SDS011;2697;42.144;24.794;2023-07-31T03:37:33;9.33;;;6.03;;
5349;SDS011;2697;42.144;24.794;2023-07-31T03:39:59;9.07;;;6.27;;
5349;SDS011;2697;42.144;24.794;2023-07-31T03:42:24;11.67;;;6.43;;
5349;SDS011;2697;42.144;24.794;2023-07-31T03:44:49;13.67;;;6.97;;
5349;SDS011;2697;42.144;24.794;2023-07-31T03:47:15;16.70;;;7.60;;
5349;SDS011;2697;42.144;24.794;2023-07-31T03:49:40;14.03;;;6.40;;
5349;SDS011;2697;42.144;24.794;2023-07-31T03:52:06;11.43;;;7.10;;
5349;SDS011;2697;42.144;24.794;2023-07-31T03:54:31;18.63;;;8.67;;
5349;SDS011;2697;42.144;24.794;2023-07-31T03:56:57;14.77;;;8.30;;
5349;SDS011;2697;42.144;24.794;2023-07-31T03:59:22;13.70;;;7.33;;
5349;SDS011;2697;42.144;24.794;2023-07-31T04:01:47;15.73;;;8.50;;
5349;SDS011;2697;42.144;24.794;2023-07-31T04:04:14;24.53;;;8.87;;
5349;SDS011;2697;42.144;24.794;2023-07-31T04:06:39;24.50;;;12.30;;
5349;SDS011;2697;42.144;24.794;2023-07-31T04:09:05;32.03;;;15.23;;
5349;SDS011;2697;42.144;24.794;2023-07-31T04:11:30;18.83;;;10.20;;
5349;SDS011;2697;42.144;24.794;2023-07-31T04:13:55;19.83;;;8.73;;
5349;SDS011;2697;42.144;24.794;2023-07-31T04:16:21;11.53;;;7.67;;
5349;SDS011;2697;42.144;24.794;2023-07-31T04:18:46;22.33;;;9.37;;
5349;SDS011;2697;42.144;24.794;2023-07-31T04:21:12;15.47;;;7.37;;
5349;SDS011;2697;42.144;24.794;2023-07-31T04:23:37;13.13;;;7.83;;
5349;SDS011;2697;42.144;24.794;2023-07-31T04:26:03;22.07;;;9.30;;
5349;SDS011;2697;42.144;24.794;2023-07-31T04:28:28;20.20;;;8.53;;
5349;SDS011;2697;42.144;24.794;2023-07-31T04:30:56;10.03;;;8.00;;
5349;SDS011;2697;42.144;24.794;2023-07-31T04:33:22;12.00;;;8.47;;
5349;SDS011;2697;42.144;24.794;2023-07-31T04:35:51;21.53;;;9.00;;
5349;SDS011;2697;42.144;24.794;2023-07-31T04:38:18;14.20;;;7.90;;
5349;SDS011;2697;42.144;24.794;2023-07-31T04:40:44;12.97;;;8.03;;
5349;SDS011;2697;42.144;24.794;2023-07-31T04:43:10;17.30;;;7.77;;
5349;SDS011;2697;42.144;24.794;2023-07-31T04:45:35;21.27;;;9.87;;
5349;SDS011;2697;42.144;24.794;2023-07-31T04:48:01;16.80;;;8.13;;
5349;SDS011;2697;42.144;24.794;2023-07-31T04:50:26;20.23;;;8.57;;
5349;SDS011;2697;42.144;24.794;2023-07-31T04:52:51;68.13;;;39.10;;
5349;SDS011;2697;42.144;24.794;2023-07-31T04:55:17;10.70;;;8.47;;
5349;SDS011;2697;42.144;24.794;2023-07-31T04:57:42;14.80;;;8.20;;
5349;SDS011;2697;42.144;24.794;2023-07-31T05:00:07;12.93;;;7.20;;
5349;SDS011;2697;42.144;24.794;2023-07-31T05:02:33;13.83;;;7.13;;
5349;SDS011;2697;42.144;24.794;2023-07-31T05:04:58;13.03;;;7.30;;
5349;SDS011;2697;42.144;24.794;2023-07-31T05:07:24;27.07;;;7.03;;
5349;SDS011;2697;42.144;24.794;2023-07-31T05:09:49;10.40;;;7.30;;
5349;SDS011;2697;42.144;24.794;2023-07-31T05:12:14;12.37;;;6.90;;
5349;SDS011;2697;42.144;24.794;2023-07-31T05:14:40;17.07;;;7.90;;
5349;SDS011;2697;42.144;24.794;2023-07-31T05:17:05;9.70;;;6.33;;
5349;SDS011;2697;42.144;24.794;2023-07-31T05:19:30;11.10;;;6.80;;
5349;SDS011;2697;42.144;24.794;2023-07-31T05:21:56;14.97;;;6.90;;
5349;SDS011;2697;42.144;24.794;2023-07-31T05:24:21;11.80;;;6.13;;
5349;SDS011;2697;42.144;24.794;2023-07-31T05:26:47;12.43;;;7.40;;
5349;SDS011;2697;42.144;24.794;2023-07-31T05:29:12;10.83;;;5.90;;
5349;SDS011;2697;42.144;24.794;2023-07-31T05:31:38;12.70;;;6.47;;
5349;SDS011;2697;42.144;24.794;2023-07-31T05:34:03;12.30;;;6.47;;
5349;SDS011;2697;42.144;24.794;2023-07-31T05:36:29;10.10;;;6.50;;
5349;SDS011;2697;42.144;24.794;2023-07-31T05:38:54;8.50;;;5.80;;
5349;SDS011;2697;42.144;24.794;2023-07-31T05:41:19;9.63;;;5.13;;
5349;SDS011;2697;42.144;24.794;2023-07-31T05:43:45;9.07;;;5.47;;
5349;SDS011;2697;42.144;24.794;2023-07-31T05:46:11;10.53;;;5.70;;
5349;SDS011;2697;42.144;24.794;2023-07-31T05:48:37;9.93;;;4.27;;
5349;SDS011;2697;42.144;24.794;2023-07-31T05:51:03;10.80;;;4.63;;
5349;SDS011;2697;42.144;24.794;2023-07-31T05:53:29;9.20;;;4.50;;
5349;SDS011;2697;42.144;24.794;2023-07-31T05:55:54;12.87;;;4.23;;
5349;SDS011;2697;42.144;24.794;2023-07-31T05:58:19;9.87;;;4.70;;
5349;SDS011;2697;42.144;24.794;2023-07-31T06:00:45;7.13;;;4.90;;
5349;SDS011;2697;42.144;24.794;2023-07-31T06:03:10;9.27;;;4.10;;
5349;SDS011;2697;42.144;24.794;2023-07-31T06:05:35;8.37;;;5.50;;
5349;SDS011;2697;42.144;24.794;2023-07-31T06:08:01;14.27;;;7.37;;
5349;SDS011;2697;42.144;24.794;2023-07-31T06:10:27;13.43;;;5.57;;
5349;SDS011;2697;42.144;24.794;2023-07-31T06:12:53;12.53;;;5.27;;
5349;SDS011;2697;42.144;24.794;2023-07-31T06:15:19;17.60;;;5.60;;
5349;SDS011;2697;42.144;24.794;2023-07-31T06:17:44;12.93;;;5.30;;
5349;SDS011;2697;42.144;24.794;2023-07-31T06:20:10;5.80;;;4.88;;
5349;SDS011;2697;42.144;24.794;2023-07-31T06:22:35;4.78;;;4.28;;
5349;SDS011;2697;42.144;24.794;2023-07-31T06:25:01;12.13;;;5.93;;
5349;SDS011;2697;42.144;24.794;2023-07-31T06:27:26;14.32;;;5.60;;
5349;SDS011;2697;42.144;24.794;2023-07-31T06:29:51;5.53;;;5.03;;
5349;SDS011;2697;42.144;24.794;2023-07-31T06:32:17;10.65;;;5.68;;
5349;SDS011;2697;42.144;24.794;2023-07-31T06:34:42;20.73;;;14.60;;
5349;SDS011;2697;42.144;24.794;2023-07-31T06:37:07;10.50;;;7.38;;
5349;SDS011;2697;42.144;24.794;2023-07-31T06:39:33;5.55;;;4.97;;
5349;SDS011;2697;42.144;24.794;2023-07-31T06:41:58;9.23;;;7.20;;
5349;SDS011;2697;42.144;24.794;2023-07-31T06:44:24;9.95;;;5.72;;
5349;SDS011;2697;42.144;24.794;2023-07-31T06:46:49;8.93;;;6.20;;
5349;SDS011;2697;42.144;24.794;2023-07-31T06:49:14;13.60;;;6.40;;
5349;SDS011;2697;42.144;24.794;2023-07-31T06:51:40;8.13;;;5.90;;
5349;SDS011;2697;42.144;24.794;2023-07-31T06:54:06;12.13;;;7.50;;
5349;SDS011;2697;42.144;24.794;2023-07-31T06:56:32;11.15;;;7.07;;
5349;SDS011;2697;42.144;24.794;2023-07-31T06:58:58;11.05;;;7.28;;
5349;SDS011;2697;42.144;24.794;2023-07-31T07:01:23;11.23;;;7.15;;
5349;SDS011;2697;42.144;24.794;2023-07-31T07:03:49;11.25;;;7.43;;
5349;SDS011;2697;42.144;24.794;2023-07-31T07:06:16;8.57;;;7.68;;
5349;SDS011;2697;42.144;24.794;2023-07-31T07:08:42;13.05;;;6.85;;
5349;SDS011;2697;42.144;24.794;2023-07-31T07:11:07;12.45;;;8.02;;
5349;SDS011;2697;42.144;24.794;2023-07-31T07:13:33;8.98;;;6.95;;
5349;SDS011;2697;42.144;24.794;2023-07-31T07:15:58;11.38;;;7.20;;
5349;SDS011;2697;42.144;24.794;2023-07-31T07:18:24;10.35;;;7.00;;
5349;SDS011;2697;42.144;24.794;2023-07-31T07:20:50;8.57;;;7.28;;
5349;SDS011;2697;42.144;24.794;2023-07-31T07:23:16;8.77;;;7.90;;
5349;SDS011;2697;42.144;24.794;2023-07-31T07:25:42;9.77;;;7.07;;
5349;SDS011;2697;42.144;24.794;2023-07-31T07:28:08;10.55;;;7.93;;
5349;SDS011;2697;42.144;24.794;2023-07-31T07:30:33;15.73;;;8.25;;
5349;SDS011;2697;42.144;24.794;2023-07-31T07:32:59;10.82;;;7.90;;
5349;SDS011;2697;42.144;24.794;2023-07-31T07:35:24;9.63;;;7.65;;
5349;SDS011;2697;42.144;24.794;2023-07-31T07:37:49;10.48;;;8.38;;
5349;SDS011;2697;42.144;24.794;2023-07-31T07:40:15;13.55;;;9.52;;
5349;SDS011;2697;42.144;24.794;2023-07-31T07:42:41;14.07;;;9.38;;
5349;SDS011;2697;42.144;24.794;2023-07-31T07:45:06;10.50;;;9.43;;
5349;SDS011;2697;42.144;24.794;2023-07-31T07:47:32;16.75;;;8.45;;
5349;SDS011;2697;42.144;24.794;2023-07-31T07:49:58;13.00;;;8.88;;
5349;SDS011;2697;42.144;24.794;2023-07-31T07:52:23;13.88;;;9.43;;
5349;SDS011;2697;42.144;24.794;2023-07-31T07:54:48;9.48;;;8.43;;
5349;SDS011;2697;42.144;24.794;2023-07-31T07:57:15;11.45;;;8.07;;
5349;SDS011;2697;42.144;24.794;2023-07-31T07:59:40;10.27;;;8.10;;
5349;SDS011;2697;42.144;24.794;2023-07-31T08:02:06;10.35;;;9.00;;
5349;SDS011;2697;42.144;24.794;2023-07-31T08:04:31;10.23;;;8.15;;
5349;SDS011;2697;42.144;24.794;2023-07-31T08:06:57;8.45;;;7.50;;
5349;SDS011;2697;42.144;24.794;2023-07-31T08:09:22;12.43;;;9.45;;
5349;SDS011;2697;42.144;24.794;2023-07-31T08:11:47;11.63;;;8.77;;
5349;SDS011;2697;42.144;24.794;2023-07-31T08:14:13;13.07;;;9.40;;
5349;SDS011;2697;42.144;24.794;2023-07-31T08:16:38;12.60;;;9.97;;
5349;SDS011;2697;42.144;24.794;2023-07-31T08:19:04;20.00;;;9.50;;
5349;SDS011;2697;42.144;24.794;2023-07-31T08:21:29;10.43;;;9.33;;
5349;SDS011;2697;42.144;24.794;2023-07-31T08:23:54;17.47;;;8.67;;
5349;SDS011;2697;42.144;24.794;2023-07-31T08:26:20;9.13;;;6.80;;
5349;SDS011;2697;42.144;24.794;2023-07-31T08:28:46;8.60;;;7.50;;
5349;SDS011;2697;42.144;24.794;2023-07-31T08:31:11;8.77;;;7.23;;
5349;SDS011;2697;42.144;24.794;2023-07-31T08:33:37;7.90;;;6.60;;
5349;SDS011;2697;42.144;24.794;2023-07-31T08:36:03;8.90;;;7.63;;
5349;SDS011;2697;42.144;24.794;2023-07-31T08:38:29;6.83;;;5.37;;
5349;SDS011;2697;42.144;24.794;2023-07-31T08:40:56;7.17;;;6.07;;
5349;SDS011;2697;42.144;24.794;2023-07-31T08:43:22;7.83;;;6.50;;
5349;SDS011;2697;42.144;24.794;2023-07-31T08:45:50;7.00;;;5.70;;
5349;SDS011;2697;42.144;24.794;2023-07-31T08:48:16;7.37;;;6.63;;
5349;SDS011;2697;42.144;24.794;2023-07-31T08:50:42;9.80;;;7.70;;
5349;SDS011;2697;42.144;24.794;2023-07-31T08:53:08;11.07;;;9.20;;
5349;SDS011;2697;42.144;24.794;2023-07-31T08:55:34;12.15;;;9.95;;
5349;SDS011;2697;42.144;24.794;2023-07-31T08:58:01;16.15;;;9.13;;
5349;SDS011;2697;42.144;24.794;2023-07-31T09:00:28;12.07;;;9.95;;
5349;SDS011;2697;42.144;24.794;2023-07-31T09:03:13;11.35;;;8.68;;
5349;SDS011;2697;42.144;24.794;2023-07-31T09:05:45;12.07;;;9.37;;
5349;SDS011;2697;42.144;24.794;2023-07-31T09:08:12;10.27;;;8.20;;
5349;SDS011;2697;42.144;24.794;2023-07-31T09:10:42;11.25;;;9.35;;
5349;SDS011;2697;42.144;24.794;2023-07-31T09:13:08;10.40;;;8.27;;
5349;SDS011;2697;42.144;24.794;2023-07-31T09:15:35;11.48;;;8.90;;
5349;SDS011;2697;42.144;24.794;2023-07-31T09:18:01;11.10;;;9.50;;
5349;SDS011;2697;42.144;24.794;2023-07-31T09:20:28;12.07;;;9.20;;
5349;SDS011;2697;42.144;24.794;2023-07-31T09:22:54;11.55;;;10.23;;
5349;SDS011;2697;42.144;24.794;2023-07-31T09:25:21;10.87;;;8.17;;
5349;SDS011;2697;42.144;24.794;2023-07-31T09:30:13;11.57;;;9.50;;
5349;SDS011;2697;42.144;24.794;2023-07-31T09:32:39;9.10;;;7.50;;
5349;SDS011;2697;42.144;24.794;2023-07-31T09:35:18;8.00;;;7.25;;
5349;SDS011;2697;42.144;24.794;2023-07-31T09:37:49;11.05;;;8.60;;
5349;SDS011;2697;42.144;24.794;2023-07-31T09:43:18;9.85;;;8.82;;
5349;SDS011;2697;42.144;24.794;2023-07-31T09:45:44;9.15;;;7.35;;
5349;SDS011;2697;42.144;24.794;2023-07-31T09:48:14;10.25;;;8.20;;
5349;SDS011;2697;42.144;24.794;2023-07-31T09:50:41;12.38;;;9.30;;
5349;SDS011;2697;42.144;24.794;2023-07-31T09:53:09;9.77;;;8.60;;
5349;SDS011;2697;42.144;24.794;2023-07-31T09:55:35;12.70;;;9.70;;
5349;SDS011;2697;42.144;24.794;2023-07-31T09:58:05;11.40;;;9.73;;
5349;SDS011;2697;42.144;24.794;2023-07-31T10:00:32;13.70;;;8.88;;
5349;SDS011;2697;42.144;24.794;2023-07-31T10:02:59;9.32;;;7.88;;
5349;SDS011;2697;42.144;24.794;2023-07-31T10:05:30;11.82;;;9.27;;
5349;SDS011;2697;42.144;24.794;2023-07-31T10:07:59;8.25;;;7.30;;
5349;SDS011;2697;42.144;24.794;2023-07-31T10:10:25;10.88;;;8.02;;
5349;SDS011;2697;42.144;24.794;2023-07-31T10:12:52;11.07;;;6.68;;
5349;SDS011;2697;42.144;24.794;2023-07-31T10:15:19;8.25;;;7.20;;
5349;SDS011;2697;42.144;24.794;2023-07-31T10:17:47;6.88;;;6.05;;
5349;SDS011;2697;42.144;24.794;2023-07-31T10:20:13;13.57;;;7.35;;
5349;SDS011;2697;42.144;24.794;2023-07-31T10:22:41;11.25;;;7.82;;
5349;SDS011;2697;42.144;24.794;2023-07-31T10:25:08;8.60;;;7.80;;
5349;SDS011;2697;42.144;24.794;2023-07-31T10:27:38;9.13;;;7.50;;
5349;SDS011;2697;42.144;24.794;2023-07-31T10:30:04;9.80;;;8.05;;
5349;SDS011;2697;42.144;24.794;2023-07-31T10:32:32;12.98;;;8.63;;
5349;SDS011;2697;42.144;24.794;2023-07-31T10:34:58;9.20;;;8.30;;
5349;SDS011;2697;42.144;24.794;2023-07-31T10:37:28;11.10;;;8.40;;
5349;SDS011;2697;42.144;24.794;2023-07-31T10:39:59;12.33;;;9.53;;
5349;SDS011;2697;42.144;24.794;2023-07-31T10:42:38;12.97;;;9.67;;
5349;SDS011;2697;42.144;24.794;2023-07-31T10:45:12;13.97;;;9.47;;
5349;SDS011;2697;42.144;24.794;2023-07-31T10:47:44;14.43;;;8.50;;
5349;SDS011;2697;42.144;24.794;2023-07-31T10:50:20;11.27;;;9.10;;
5349;SDS011;2697;42.144;24.794;2023-07-31T10:52:49;13.10;;;8.97;;
5349;SDS011;2697;42.144;24.794;2023-07-31T10:55:32;12.00;;;9.00;;
5349;SDS011;2697;42.144;24.794;2023-07-31T11:00:32;16.67;;;8.17;;
5349;SDS011;2697;42.144;24.794;2023-07-31T11:03:07;13.83;;;9.27;;
5349;SDS011;2697;42.144;24.794;2023-07-31T11:08:17;9.83;;;8.30;;
5349;SDS011;2697;42.144;24.794;2023-07-31T11:10:46;10.07;;;8.63;;
5349;SDS011;2697;42.144;24.794;2023-07-31T11:13:12;8.55;;;6.95;;
5349;SDS011;2697;42.144;24.794;2023-07-31T11:15:39;10.10;;;7.80;;
5349;SDS011;2697;42.144;24.794;2023-07-31T11:18:04;9.55;;;8.18;;
5349;SDS011;2697;42.144;24.794;2023-07-31T11:20:35;10.05;;;7.72;;
5349;SDS011;2697;42.144;24.794;2023-07-31T11:23:02;7.00;;;5.37;;
5349;SDS011;2697;42.144;24.794;2023-07-31T11:25:30;15.50;;;6.73;;
5349;SDS011;2697;42.144;24.794;2023-07-31T11:27:58;14.83;;;6.50;;
5349;SDS011;2697;42.144;24.794;2023-07-31T11:30:28;7.60;;;6.80;;
5349;SDS011;2697;42.144;24.794;2023-07-31T11:32:54;9.23;;;5.97;;
5349;SDS011;2697;42.144;24.794;2023-07-31T11:35:20;13.07;;;7.83;;
5349;SDS011;2697;42.144;24.794;2023-07-31T11:37:45;9.93;;;6.93;;
5349;SDS011;2697;42.144;24.794;2023-07-31T11:40:11;11.43;;;7.47;;
5349;SDS011;2697;42.144;24.794;2023-07-31T11:42:36;12.33;;;5.90;;
5349;SDS011;2697;42.144;24.794;2023-07-31T11:45:05;6.80;;;4.80;;
5349;SDS011;2697;42.144;24.794;2023-07-31T11:47:32;6.70;;;4.83;;
5349;SDS011;2697;42.144;24.794;2023-07-31T11:50:04;7.80;;;5.13;;
5349;SDS011;2697;42.144;24.794;2023-07-31T11:52:32;9.60;;;7.07;;
5349;SDS011;2697;42.144;24.794;2023-07-31T11:55:02;7.53;;;6.73;;
5349;SDS011;2697;42.144;24.794;2023-07-31T11:57:28;11.90;;;7.03;;
5349;SDS011;2697;42.144;24.794;2023-07-31T11:59:54;11.70;;;6.23;;
5349;SDS011;2697;42.144;24.794;2023-07-31T12:02:21;8.90;;;6.93;;
5349;SDS011;2697;42.144;24.794;2023-07-31T12:04:47;8.20;;;6.53;;
5349;SDS011;2697;42.144;24.794;2023-07-31T12:07:13;10.00;;;6.80;;
5349;SDS011;2697;42.144;24.794;2023-07-31T12:09:38;9.80;;;6.57;;
5349;SDS011;2697;42.144;24.794;2023-07-31T12:12:19;12.30;;;6.97;;
5349;SDS011;2697;42.144;24.794;2023-07-31T12:14:45;7.07;;;6.37;;
5349;SDS011;2697;42.144;24.794;2023-07-31T12:17:10;7.70;;;5.93;;
5349;SDS011;2697;42.144;24.794;2023-07-31T12:19:36;7.07;;;6.30;;
5349;SDS011;2697;42.144;24.794;2023-07-31T12:22:10;8.73;;;6.20;;
5349;SDS011;2697;42.144;24.794;2023-07-31T12:24:39;7.90;;;6.70;;
5349;SDS011;2697;42.144;24.794;2023-07-31T12:27:09;8.70;;;7.20;;
5349;SDS011;2697;42.144;24.794;2023-07-31T12:29:39;8.03;;;6.97;;
5349;SDS011;2697;42.144;24.794;2023-07-31T12:32:18;7.93;;;6.33;;
5349;SDS011;2697;42.144;24.794;2023-07-31T12:34:44;10.17;;;6.70;;
5349;SDS011;2697;42.144;24.794;2023-07-31T12:37:10;17.03;;;8.03;;
5349;SDS011;2697;42.144;24.794;2023-07-31T12:39:35;7.40;;;5.70;;
5349;SDS011;2697;42.144;24.794;2023-07-31T12:42:01;12.20;;;6.43;;
5349;SDS011;2697;42.144;24.794;2023-07-31T12:44:26;5.73;;;5.23;;
5349;SDS011;2697;42.144;24.794;2023-07-31T12:46:51;5.50;;;5.00;;
5349;SDS011;2697;42.144;24.794;2023-07-31T12:49:17;7.63;;;5.10;;
5349;SDS011;2697;42.144;24.794;2023-07-31T12:51:42;18.90;;;6.40;;
5349;SDS011;2697;42.144;24.794;2023-07-31T12:54:07;7.40;;;5.77;;
5349;SDS011;2697;42.144;24.794;2023-07-31T12:56:33;12.03;;;7.20;;
5349;SDS011;2697;42.144;24.794;2023-07-31T12:58:58;6.70;;;6.10;;
5349;SDS011;2697;42.144;24.794;2023-07-31T13:01:23;8.63;;;6.30;;
5349;SDS011;2697;42.144;24.794;2023-07-31T13:03:49;8.53;;;6.53;;
5349;SDS011;2697;42.144;24.794;2023-07-31T13:06:14;8.13;;;6.47;;
5349;SDS011;2697;42.144;24.794;2023-07-31T13:08:39;7.27;;;6.27;;
5349;SDS011;2697;42.144;24.794;2023-07-31T13:11:05;12.40;;;6.80;;
5349;SDS011;2697;42.144;24.794;2023-07-31T13:13:30;11.10;;;6.10;;
5349;SDS011;2697;42.144;24.794;2023-07-31T13:15:56;9.07;;;5.90;;
5349;SDS011;2697;42.144;24.794;2023-07-31T13:18:21;24.20;;;6.70;;
5349;SDS011;2697;42.144;24.794;2023-07-31T13:20:47;6.50;;;5.10;;
5349;SDS011;2697;42.144;24.794;2023-07-31T13:23:12;7.10;;;5.33;;
5349;SDS011;2697;42.144;24.794;2023-07-31T13:25:37;6.83;;;5.60;;
5349;SDS011;2697;42.144;24.794;2023-07-31T13:28:03;11.63;;;6.50;;
5349;SDS011;2697;42.144;24.794;2023-07-31T13:30:28;7.30;;;5.87;;
5349;SDS011;2697;42.144;24.794;2023-07-31T13:32:54;7.27;;;5.67;;
5349;SDS011;2697;42.144;24.794;2023-07-31T13:35:19;7.17;;;5.70;;
5349;SDS011;2697;42.144;24.794;2023-07-31T13:37:44;9.50;;;5.87;;
5349;SDS011;2697;42.144;24.794;2023-07-31T13:40:10;8.30;;;6.53;;
5349;SDS011;2697;42.144;24.794;2023-07-31T13:42:36;8.37;;;5.80;;
5349;SDS011;2697;42.144;24.794;2023-07-31T13:45:01;13.43;;;5.87;;
5349;SDS011;2697;42.144;24.794;2023-07-31T13:47:26;6.60;;;5.73;;
5349;SDS011;2697;42.144;24.794;2023-07-31T13:49:52;8.60;;;5.90;;
5349;SDS011;2697;42.144;24.794;2023-07-31T13:52:17;13.20;;;5.93;;
5349;SDS011;2697;42.144;24.794;2023-07-31T13:54:42;9.53;;;4.20;;
5349;SDS011;2697;42.144;24.794;2023-07-31T13:57:08;5.30;;;4.80;;
5349;SDS011;2697;42.144;24.794;2023-07-31T13:59:33;7.10;;;4.70;;
5349;SDS011;2697;42.144;24.794;2023-07-31T14:01:59;6.70;;;5.00;;
5349;SDS011;2697;42.144;24.794;2023-07-31T14:04:24;6.90;;;5.70;;
5349;SDS011;2697;42.144;24.794;2023-07-31T14:06:50;5.77;;;5.20;;
5349;SDS011;2697;42.144;24.794;2023-07-31T14:09:15;8.00;;;6.30;;
5349;SDS011;2697;42.144;24.794;2023-07-31T14:11:42;7.57;;;5.30;;
5349;SDS011;2697;42.144;24.794;2023-07-31T14:14:08;9.60;;;5.93;;
5349;SDS011;2697;42.144;24.794;2023-07-31T14:16:34;7.13;;;5.13;;
5349;SDS011;2697;42.144;24.794;2023-07-31T14:18:59;7.87;;;5.97;;
5349;SDS011;2697;42.144;24.794;2023-07-31T14:21:25;12.97;;;7.03;;
5349;SDS011;2697;42.144;24.794;2023-07-31T14:23:51;6.87;;;6.07;;
5349;SDS011;2697;42.144;24.794;2023-07-31T14:26:16;7.90;;;5.73;;
5349;SDS011;2697;42.144;24.794;2023-07-31T14:28:42;9.60;;;5.70;;
5349;SDS011;2697;42.144;24.794;2023-07-31T14:31:07;14.03;;;5.50;;
5349;SDS011;2697;42.144;24.794;2023-07-31T14:33:33;11.13;;;5.23;;
5349;SDS011;2697;42.144;24.794;2023-07-31T14:35:58;7.33;;;6.10;;
5349;SDS011;2697;42.144;24.794;2023-07-31T14:38:23;6.07;;;5.47;;
5349;SDS011;2697;42.144;24.794;2023-07-31T14:40:50;8.90;;;5.97;;
5349;SDS011;2697;42.144;24.794;2023-07-31T14:43:16;6.93;;;6.07;;
5349;SDS011;2697;42.144;24.794;2023-07-31T14:45:41;6.77;;;5.63;;
5349;SDS011;2697;42.144;24.794;2023-07-31T14:48:07;9.70;;;5.50;;
5349;SDS011;2697;42.144;24.794;2023-07-31T14:50:32;7.40;;;6.17;;
5349;SDS011;2697;42.144;24.794;2023-07-31T14:52:58;7.30;;;6.07;;
5349;SDS011;2697;42.144;24.794;2023-07-31T14:55:24;12.90;;;6.73;;
5349;SDS011;2697;42.144;24.794;2023-07-31T14:57:50;8.63;;;6.80;;
5349;SDS011;2697;42.144;24.794;2023-07-31T15:00:15;10.77;;;6.37;;
5349;SDS011;2697;42.144;24.794;2023-07-31T15:02:41;11.87;;;5.47;;
5349;SDS011;2697;42.144;24.794;2023-07-31T15:05:06;10.20;;;5.70;;